01:59 MTB Moetz PLUS - Gruenberglift - Arzkasten - Wildermieming - Telfs - Moetz
Ort Moetz Datum 15.08.2016 14:38:25
Kategorie MTB
Distanz 42,84 Kilometer Steigung 572,0 Meter Gefälle -563,0 Meter
Gesamt Zeit 01:59:00 Aktiv 01:59:00 Pause 00:00:00
Durchs. Tempo 21,6 km/h Tempo max. 41,3 km/h Tempo min. 6,4 km/h
Kalorien 0 Durchs. HF 125 BPM HF max. 163 BPM
Wetter 27 °C PartClouds Min/Max: 25,1 °C/28,5 °C; Druck: 1017,1 mbar; Rel. Feuchte: 46,2%; Taupunkt: 14,7 °C; Windgeschwindigkeit: 2,7 km/h; Niederschlag: 0,0mm
Ausrüstung Bontrager - Race X Lite MTB
Schwalbe - Nobby Nic vorne
Schwalbe - Racing Ralph hinten
Shimano - HG-XTR 7701
Specialized - Stumpjumper Comp
Notiz Moetz PLUS - Gruenberglift - Arzkasten - Wildermieming - Telfs - Moetz ... trocken, ziemlich warm, eher locker ... garmin connect
Splits
Distanz (km) Gesamt Zeit Split Zeit Split Tempo Split Tempo Höhenprofil (m)
1,00 00:02:29 00:02:29 00:02:30 24,0 -0,96
2,00 00:05:19 00:02:50 00:02:50 21,2 -4,90
3,00 00:08:11 00:02:51 00:02:51 21,0 5,40
4,00 00:10:46 00:02:35 00:02:35 23,2 7,52
5,00 00:12:48 00:02:02 00:02:02 29,5 -10,14
6,00 00:15:45 00:02:57 00:02:57 20,3 15,45
7,00 00:21:51 00:06:06 00:06:06 9,8 79,36
8,00 00:29:05 00:07:13 00:07:14 8,3 93,90
9,00 00:37:02 00:07:57 00:07:57 7,5 107,76
10,00 00:42:04 00:05:02 00:05:02 11,9 50,29
11,00 00:45:32 00:03:27 00:03:27 17,4 23,61
12,00 00:48:56 00:03:24 00:03:24 17,6 18,03
13,00 00:52:29 00:03:33 00:03:33 16,9 37,56
14,00 00:57:15 00:04:46 00:04:46 12,6 58,79
15,00 00:59:48 00:02:32 00:02:32 23,6 -29,90
16,00 01:01:20 00:01:32 00:01:33 38,8 -67,16
17,00 01:03:08 00:01:48 00:01:48 33,3 -35,57
18,00 01:04:59 00:01:50 00:01:51 32,5 -47,09
19,00 01:07:55 00:02:56 00:02:56 20,4 -4,84
20,00 01:09:49 00:01:53 00:01:53 31,7 -37,76
21,00 01:12:29 00:02:40 00:02:40 22,4 -6,04
22,00 01:14:54 00:02:24 00:02:25 24,8 -10,22
23,00 01:17:07 00:02:12 00:02:13 27,1 -7,54
24,00 01:19:22 00:02:15 00:02:16 26,5 5,23
25,00 01:21:27 00:02:04 00:02:04 28,9 -19,84
26,00 01:23:27 00:02:00 00:02:00 29,9 -15,77
27,00 01:25:29 00:02:02 00:02:02 29,4 -20,53
28,00 01:27:24 00:01:54 00:01:55 31,3 -19,83
29,00 01:29:22 00:01:58 00:01:58 30,5 -69,52
30,00 01:31:18 00:01:55 00:01:56 31,1 -74,27
31,00 01:33:11 00:01:52 00:01:53 31,9 -38,83
32,00 01:35:47 00:02:36 00:02:37 23,0 -11,54
33,00 01:37:57 00:02:09 00:02:09 27,8 0,53
34,00 01:40:02 00:02:05 00:02:05 28,7 4,26
35,00 01:42:10 00:02:08 00:02:08 28,1 1,70
36,00 01:44:35 00:02:24 00:02:25 24,9 8,37
37,00 01:47:01 00:02:25 00:02:26 24,7 2,04
38,00 01:49:09 00:02:07 00:02:08 28,2 -3,29
39,00 01:51:11 00:02:02 00:02:03 29,4 1,93
40,00 01:53:18 00:02:06 00:02:07 28,4 1,63
41,00 01:55:25 00:02:07 00:02:07 28,3 2,33
42,00 01:57:24 00:01:58 00:01:58 30,4 -0,55
42,77 01:59:00 00:01:35 00:02:05 28,8 10,31